sensor_id;sensor_type;location;lat;lon;timestamp;P1;durP1;ratioP1;P2;durP2;ratioP2
29916;SDS011;16786;49.466;11.068;2023-04-01T00:00:07;8.43;;;1.80;;
29916;SDS011;16786;49.466;11.068;2023-04-01T00:02:39;6.63;;;1.77;;
29916;SDS011;16786;49.466;11.068;2023-04-01T00:05:07;4.88;;;1.52;;
29916;SDS011;16786;49.466;11.068;2023-04-01T00:07:37;5.03;;;1.83;;
29916;SDS011;16786;49.466;11.068;2023-04-01T00:10:06;5.82;;;1.95;;
29916;SDS011;16786;49.466;11.068;2023-04-01T00:12:34;4.15;;;1.70;;
29916;SDS011;16786;49.466;11.068;2023-04-01T00:15:03;6.45;;;1.85;;
29916;SDS011;16786;49.466;11.068;2023-04-01T00:17:33;5.28;;;1.48;;
29916;SDS011;16786;49.466;11.068;2023-04-01T00:20:00;5.10;;;1.60;;
29916;SDS011;16786;49.466;11.068;2023-04-01T00:22:29;6.15;;;1.65;;
29916;SDS011;16786;49.466;11.068;2023-04-01T00:24:56;4.32;;;1.63;;
29916;SDS011;16786;49.466;11.068;2023-04-01T00:27:23;4.63;;;1.50;;
29916;SDS011;16786;49.466;11.068;2023-04-01T00:29:51;3.65;;;1.58;;
29916;SDS011;16786;49.466;11.068;2023-04-01T00:32:18;5.32;;;1.60;;
29916;SDS011;16786;49.466;11.068;2023-04-01T00:34:46;6.13;;;1.50;;
29916;SDS011;16786;49.466;11.068;2023-04-01T00:37:18;6.60;;;1.92;;
29916;SDS011;16786;49.466;11.068;2023-04-01T00:39:47;5.22;;;1.67;;
29916;SDS011;16786;49.466;11.068;2023-04-01T00:42:15;5.18;;;1.70;;
29916;SDS011;16786;49.466;11.068;2023-04-01T00:44:42;3.88;;;1.70;;
29916;SDS011;16786;49.466;11.068;2023-04-01T00:47:11;4.43;;;1.55;;
29916;SDS011;16786;49.466;11.068;2023-04-01T00:49:40;7.13;;;1.90;;
29916;SDS011;16786;49.466;11.068;2023-04-01T00:52:11;3.90;;;1.55;;
29916;SDS011;16786;49.466;11.068;2023-04-01T00:54:42;3.45;;;1.50;;
29916;SDS011;16786;49.466;11.068;2023-04-01T01:00:12;2.97;;;1.60;;
29916;SDS011;16786;49.466;11.068;2023-04-01T01:02:41;4.35;;;1.63;;
29916;SDS011;16786;49.466;11.068;2023-04-01T01:05:14;2.67;;;1.40;;
29916;SDS011;16786;49.466;11.068;2023-04-01T01:08:10;5.63;;;1.85;;
29916;SDS011;16786;49.466;11.068;2023-04-01T01:10:44;3.50;;;1.70;;
29916;SDS011;16786;49.466;11.068;2023-04-01T01:13:36;2.90;;;1.55;;
29916;SDS011;16786;49.466;11.068;2023-04-01T01:16:22;4.35;;;1.85;;
29916;SDS011;16786;49.466;11.068;2023-04-01T01:19:14;6.70;;;1.88;;
29916;SDS011;16786;49.466;11.068;2023-04-01T01:27:02;4.25;;;1.55;;
29916;SDS011;16786;49.466;11.068;2023-04-01T01:29:43;4.10;;;1.48;;
29916;SDS011;16786;49.466;11.068;2023-04-01T01:32:16;3.72;;;1.35;;
29916;SDS011;16786;49.466;11.068;2023-04-01T01:37:46;4.07;;;1.42;;
29916;SDS011;16786;49.466;11.068;2023-04-01T01:40:24;4.22;;;1.40;;
29916;SDS011;16786;49.466;11.068;2023-04-01T01:42:55;4.32;;;1.50;;
29916;SDS011;16786;49.466;11.068;2023-04-01T01:45:27;3.97;;;1.40;;
29916;SDS011;16786;49.466;11.068;2023-04-01T01:47:57;2.75;;;1.30;;
29916;SDS011;16786;49.466;11.068;2023-04-01T01:50:28;2.45;;;1.25;;
29916;SDS011;16786;49.466;11.068;2023-04-01T01:53:00;3.63;;;1.50;;
29916;SDS011;16786;49.466;11.068;2023-04-01T01:55:31;2.67;;;1.55;;
29916;SDS011;16786;49.466;11.068;2023-04-01T01:58:04;3.50;;;1.20;;
29916;SDS011;16786;49.466;11.068;2023-04-01T02:00:50;3.17;;;1.40;;
29916;SDS011;16786;49.466;11.068;2023-04-01T02:03:40;4.75;;;1.60;;
29916;SDS011;16786;49.466;11.068;2023-04-01T02:06:09;5.30;;;1.80;;
29916;SDS011;16786;49.466;11.068;2023-04-01T02:08:45;3.63;;;1.35;;
29916;SDS011;16786;49.466;11.068;2023-04-01T02:11:27;3.30;;;1.25;;
29916;SDS011;16786;49.466;11.068;2023-04-01T02:14:10;5.20;;;1.58;;
29916;SDS011;16786;49.466;11.068;2023-04-01T02:19:18;4.63;;;1.40;;
29916;SDS011;16786;49.466;11.068;2023-04-01T02:21:50;3.25;;;1.50;;
29916;SDS011;16786;49.466;11.068;2023-04-01T02:26:51;3.35;;;1.50;;
29916;SDS011;16786;49.466;11.068;2023-04-01T02:29:22;4.40;;;1.60;;
29916;SDS011;16786;49.466;11.068;2023-04-01T02:31:54;3.10;;;1.40;;
29916;SDS011;16786;49.466;11.068;2023-04-01T02:34:23;4.18;;;1.48;;
29916;SDS011;16786;49.466;11.068;2023-04-01T02:36:51;2.38;;;1.30;;
29916;SDS011;16786;49.466;11.068;2023-04-01T02:39:20;5.03;;;1.40;;
29916;SDS011;16786;49.466;11.068;2023-04-01T02:41:48;3.05;;;1.30;;
29916;SDS011;16786;49.466;11.068;2023-04-01T02:44:15;4.20;;;1.55;;
29916;SDS011;16786;49.466;11.068;2023-04-01T02:46:43;4.80;;;1.50;;
29916;SDS011;16786;49.466;11.068;2023-04-01T02:49:10;4.03;;;1.50;;
29916;SDS011;16786;49.466;11.068;2023-04-01T02:51:38;4.30;;;1.38;;
29916;SDS011;16786;49.466;11.068;2023-04-01T02:54:06;2.42;;;1.30;;
29916;SDS011;16786;49.466;11.068;2023-04-01T02:56:33;4.30;;;1.70;;
29916;SDS011;16786;49.466;11.068;2023-04-01T02:59:00;4.28;;;1.50;;
29916;SDS011;16786;49.466;11.068;2023-04-01T03:01:28;4.88;;;1.40;;
29916;SDS011;16786;49.466;11.068;2023-04-01T03:03:55;5.18;;;1.50;;
29916;SDS011;16786;49.466;11.068;2023-04-01T03:06:22;4.00;;;1.40;;
29916;SDS011;16786;49.466;11.068;2023-04-01T03:08:50;4.25;;;1.48;;
29916;SDS011;16786;49.466;11.068;2023-04-01T03:11:17;3.22;;;1.30;;
29916;SDS011;16786;49.466;11.068;2023-04-01T03:13:44;4.05;;;1.50;;
29916;SDS011;16786;49.466;11.068;2023-04-01T03:16:12;5.25;;;1.73;;
29916;SDS011;16786;49.466;11.068;2023-04-01T03:18:39;4.38;;;2.25;;
29916;SDS011;16786;49.466;11.068;2023-04-01T03:21:13;3.90;;;1.63;;
29916;SDS011;16786;49.466;11.068;2023-04-01T03:23:41;2.50;;;1.33;;
29916;SDS011;16786;49.466;11.068;2023-04-01T03:26:08;5.05;;;1.40;;
29916;SDS011;16786;49.466;11.068;2023-04-01T03:28:36;3.97;;;1.77;;
29916;SDS011;16786;49.466;11.068;2023-04-01T03:31:03;4.55;;;1.50;;
29916;SDS011;16786;49.466;11.068;2023-04-01T03:33:39;4.95;;;1.50;;
29916;SDS011;16786;49.466;11.068;2023-04-01T03:36:06;8.93;;;1.50;;
29916;SDS011;16786;49.466;11.068;2023-04-01T03:38:34;6.32;;;1.67;;
29916;SDS011;16786;49.466;11.068;2023-04-01T03:41:02;3.15;;;1.63;;
29916;SDS011;16786;49.466;11.068;2023-04-01T03:43:31;6.18;;;1.80;;
29916;SDS011;16786;49.466;11.068;2023-04-01T03:45:59;7.85;;;2.10;;
29916;SDS011;16786;49.466;11.068;2023-04-01T03:48:27;5.85;;;1.55;;
29916;SDS011;16786;49.466;11.068;2023-04-01T03:50:54;4.72;;;1.75;;
29916;SDS011;16786;49.466;11.068;2023-04-01T03:53:22;3.35;;;1.45;;
29916;SDS011;16786;49.466;11.068;2023-04-01T03:55:51;5.20;;;1.50;;
29916;SDS011;16786;49.466;11.068;2023-04-01T03:58:18;3.50;;;1.40;;
29916;SDS011;16786;49.466;11.068;2023-04-01T04:00:46;3.58;;;1.30;;
29916;SDS011;16786;49.466;11.068;2023-04-01T04:03:13;3.28;;;1.35;;
29916;SDS011;16786;49.466;11.068;2023-04-01T04:05:48;5.60;;;1.90;;
29916;SDS011;16786;49.466;11.068;2023-04-01T04:08:17;5.90;;;1.83;;
29916;SDS011;16786;49.466;11.068;2023-04-01T04:10:44;5.40;;;1.60;;
29916;SDS011;16786;49.466;11.068;2023-04-01T04:13:13;7.13;;;1.70;;
29916;SDS011;16786;49.466;11.068;2023-04-01T04:15:48;3.92;;;1.45;;
29916;SDS011;16786;49.466;11.068;2023-04-01T04:18:15;4.30;;;1.38;;
29916;SDS011;16786;49.466;11.068;2023-04-01T04:20:45;3.90;;;2.03;;
29916;SDS011;16786;49.466;11.068;2023-04-01T04:23:18;2.47;;;1.35;;
29916;SDS011;16786;49.466;11.068;2023-04-01T04:26:05;3.38;;;1.60;;
29916;SDS011;16786;49.466;11.068;2023-04-01T04:28:34;3.20;;;1.30;;
29916;SDS011;16786;49.466;11.068;2023-04-01T04:31:03;4.55;;;1.58;;
29916;SDS011;16786;49.466;11.068;2023-04-01T04:33:35;2.92;;;1.70;;
29916;SDS011;16786;49.466;11.068;2023-04-01T04:36:03;4.03;;;1.42;;
29916;SDS011;16786;49.466;11.068;2023-04-01T04:38:31;3.13;;;1.63;;
29916;SDS011;16786;49.466;11.068;2023-04-01T04:41:03;3.60;;;1.50;;
29916;SDS011;16786;49.466;11.068;2023-04-01T04:43:34;5.93;;;1.67;;
29916;SDS011;16786;49.466;11.068;2023-04-01T04:46:04;3.67;;;1.50;;
29916;SDS011;16786;49.466;11.068;2023-04-01T04:48:33;3.03;;;1.33;;
29916;SDS011;16786;49.466;11.068;2023-04-01T04:51:00;2.95;;;1.30;;
29916;SDS011;16786;49.466;11.068;2023-04-01T04:53:28;3.95;;;1.50;;
29916;SDS011;16786;49.466;11.068;2023-04-01T04:55:56;4.65;;;1.40;;
29916;SDS011;16786;49.466;11.068;2023-04-01T04:58:33;3.63;;;1.40;;
29916;SDS011;16786;49.466;11.068;2023-04-01T05:01:08;3.55;;;1.73;;
29916;SDS011;16786;49.466;11.068;2023-04-01T05:03:38;6.38;;;2.17;;
29916;SDS011;16786;49.466;11.068;2023-04-01T05:06:07;3.72;;;1.40;;
29916;SDS011;16786;49.466;11.068;2023-04-01T05:08:35;5.45;;;1.70;;
29916;SDS011;16786;49.466;11.068;2023-04-01T05:11:06;3.65;;;1.40;;
29916;SDS011;16786;49.466;11.068;2023-04-01T05:13:41;3.85;;;1.40;;
29916;SDS011;16786;49.466;11.068;2023-04-01T05:16:13;3.33;;;1.65;;
29916;SDS011;16786;49.466;11.068;2023-04-01T05:18:42;2.50;;;1.20;;
29916;SDS011;16786;49.466;11.068;2023-04-01T05:21:11;4.93;;;1.48;;
29916;SDS011;16786;49.466;11.068;2023-04-01T05:23:40;2.35;;;1.33;;
29916;SDS011;16786;49.466;11.068;2023-04-01T05:26:09;2.22;;;1.48;;
29916;SDS011;16786;49.466;11.068;2023-04-01T05:28:38;3.30;;;1.23;;
29916;SDS011;16786;49.466;11.068;2023-04-01T05:31:06;4.13;;;1.40;;
29916;SDS011;16786;49.466;11.068;2023-04-01T05:33:39;2.42;;;1.50;;
29916;SDS011;16786;49.466;11.068;2023-04-01T05:36:07;2.72;;;1.63;;
29916;SDS011;16786;49.466;11.068;2023-04-01T05:38:40;2.65;;;1.20;;
29916;SDS011;16786;49.466;11.068;2023-04-01T05:41:11;2.70;;;1.27;;
29916;SDS011;16786;49.466;11.068;2023-04-01T05:43:42;4.65;;;1.38;;
29916;SDS011;16786;49.466;11.068;2023-04-01T05:46:28;3.83;;;1.30;;
29916;SDS011;16786;49.466;11.068;2023-04-01T05:49:08;2.42;;;1.27;;
29916;SDS011;16786;49.466;11.068;2023-04-01T05:51:35;3.05;;;1.20;;
29916;SDS011;16786;49.466;11.068;2023-04-01T05:54:04;5.32;;;1.42;;
29916;SDS011;16786;49.466;11.068;2023-04-01T05:56:32;4.88;;;1.30;;
29916;SDS011;16786;49.466;11.068;2023-04-01T05:58:59;1.23;;;1.02;;
29916;SDS011;16786;49.466;11.068;2023-04-01T06:01:27;3.85;;;1.20;;
29916;SDS011;16786;49.466;11.068;2023-04-01T06:03:54;1.77;;;1.20;;
29916;SDS011;16786;49.466;11.068;2023-04-01T06:06:26;1.77;;;1.25;;
29916;SDS011;16786;49.466;11.068;2023-04-01T06:09:07;3.67;;;1.40;;
29916;SDS011;16786;49.466;11.068;2023-04-01T06:17:23;4.40;;;1.40;;
29916;SDS011;16786;49.466;11.068;2023-04-01T06:20:27;2.50;;;1.20;;
29916;SDS011;16786;49.466;11.068;2023-04-01T06:31:46;1.88;;;1.20;;
29916;SDS011;16786;49.466;11.068;2023-04-01T06:34:43;3.05;;;1.30;;
29916;SDS011;16786;49.466;11.068;2023-04-01T06:46:36;3.35;;;1.40;;
29916;SDS011;16786;49.466;11.068;2023-04-01T06:52:41;2.30;;;1.20;;
29916;SDS011;16786;49.466;11.068;2023-04-01T06:55:52;3.13;;;1.35;;
29916;SDS011;16786;49.466;11.068;2023-04-01T06:58:57;3.08;;;1.20;;
29916;SDS011;16786;49.466;11.068;2023-04-01T07:01:32;2.25;;;1.40;;
29916;SDS011;16786;49.466;11.068;2023-04-01T07:04:05;2.78;;;1.35;;
29916;SDS011;16786;49.466;11.068;2023-04-01T07:06:43;1.70;;;1.10;;
29916;SDS011;16786;49.466;11.068;2023-04-01T07:09:19;3.72;;;1.40;;
29916;SDS011;16786;49.466;11.068;2023-04-01T07:12:11;2.70;;;1.40;;
29916;SDS011;16786;49.466;11.068;2023-04-01T07:15:15;2.03;;;1.20;;
29916;SDS011;16786;49.466;11.068;2023-04-01T07:17:52;2.90;;;1.60;;
29916;SDS011;16786;49.466;11.068;2023-04-01T07:20:24;4.10;;;1.40;;
29916;SDS011;16786;49.466;11.068;2023-04-01T07:23:00;3.03;;;1.45;;
29916;SDS011;16786;49.466;11.068;2023-04-01T07:25:52;4.40;;;1.50;;
29916;SDS011;16786;49.466;11.068;2023-04-01T07:34:23;2.28;;;1.40;;
29916;SDS011;16786;49.466;11.068;2023-04-01T07:37:10;2.70;;;1.40;;
29916;SDS011;16786;49.466;11.068;2023-04-01T08:04:22;5.40;;;1.80;;
29916;SDS011;16786;49.466;11.068;2023-04-01T08:07:22;2.38;;;1.52;;
29916;SDS011;16786;49.466;11.068;2023-04-01T08:13:24;2.80;;;1.88;;
29916;SDS011;16786;49.466;11.068;2023-04-01T08:22:27;3.67;;;1.70;;
29916;SDS011;16786;49.466;11.068;2023-04-01T08:25:01;5.28;;;1.73;;
29916;SDS011;16786;49.466;11.068;2023-04-01T08:27:37;3.65;;;1.70;;
29916;SDS011;16786;49.466;11.068;2023-04-01T08:30:21;4.18;;;1.88;;
29916;SDS011;16786;49.466;11.068;2023-04-01T08:38:01;3.13;;;1.67;;
29916;SDS011;16786;49.466;11.068;2023-04-01T08:49:53;3.78;;;1.70;;
29916;SDS011;16786;49.466;11.068;2023-04-01T08:53:06;1.75;;;1.50;;
29916;SDS011;16786;49.466;11.068;2023-04-01T08:55:40;3.47;;;1.73;;
29916;SDS011;16786;49.466;11.068;2023-04-01T08:58:21;2.58;;;1.60;;
29916;SDS011;16786;49.466;11.068;2023-04-01T09:01:13;2.67;;;1.60;;
29916;SDS011;16786;49.466;11.068;2023-04-01T09:03:58;3.28;;;1.75;;
29916;SDS011;16786;49.466;11.068;2023-04-01T09:06:59;3.40;;;1.77;;
29916;SDS011;16786;49.466;11.068;2023-04-01T09:18:34;3.67;;;2.00;;
29916;SDS011;16786;49.466;11.068;2023-04-01T09:40:48;2.00;;;1.55;;
29916;SDS011;16786;49.466;11.068;2023-04-01T09:43:57;1.90;;;1.60;;
29916;SDS011;16786;49.466;11.068;2023-04-01T09:46:57;2.00;;;1.52;;
29916;SDS011;16786;49.466;11.068;2023-04-01T10:23:20;1.77;;;1.27;;
29916;SDS011;16786;49.466;11.068;2023-04-01T10:26:20;1.45;;;1.15;;
29916;SDS011;16786;49.466;11.068;2023-04-01T10:35:40;2.13;;;1.23;;
29916;SDS011;16786;49.466;11.068;2023-04-01T10:38:03;2.17;;;1.20;;
29916;SDS011;16786;49.466;11.068;2023-04-01T10:52:16;1.67;;;1.17;;
29916;SDS011;16786;49.466;11.068;2023-04-01T10:54:49;2.70;;;1.13;;
29916;SDS011;16786;49.466;11.068;2023-04-01T11:10:54;5.78;;;1.20;;
29916;SDS011;16786;49.466;11.068;2023-04-01T11:27:59;2.75;;;1.20;;
29916;SDS011;16786;49.466;11.068;2023-04-01T11:33:24;2.35;;;1.20;;
29916;SDS011;16786;49.466;11.068;2023-04-01T11:36:04;2.50;;;1.05;;
29916;SDS011;16786;49.466;11.068;2023-04-01T11:48:13;2.60;;;1.08;;
29916;SDS011;16786;49.466;11.068;2023-04-01T11:51:10;2.20;;;1.00;;
29916;SDS011;16786;49.466;11.068;2023-04-01T12:05:11;1.25;;;0.90;;
29916;SDS011;16786;49.466;11.068;2023-04-01T12:10:58;3.67;;;0.93;;
29916;SDS011;16786;49.466;11.068;2023-04-01T12:13:49;0.93;;;0.85;;
29916;SDS011;16786;49.466;11.068;2023-04-01T12:19:17;1.23;;;0.90;;
29916;SDS011;16786;49.466;11.068;2023-04-01T12:33:10;1.95;;;1.10;;
29916;SDS011;16786;49.466;11.068;2023-04-01T12:36:01;2.95;;;1.13;;
29916;SDS011;16786;49.466;11.068;2023-04-01T12:42:11;1.27;;;0.90;;
29916;SDS011;16786;49.466;11.068;2023-04-01T12:50:15;0.98;;;0.80;;
29916;SDS011;16786;49.466;11.068;2023-04-01T12:55:43;1.80;;;1.00;;
29916;SDS011;16786;49.466;11.068;2023-04-01T13:04:37;1.77;;;0.90;;
29916;SDS011;16786;49.466;11.068;2023-04-01T13:23:55;1.20;;;0.98;;
29916;SDS011;16786;49.466;11.068;2023-04-01T13:26:39;1.40;;;0.90;;
29916;SDS011;16786;49.466;11.068;2023-04-01T13:29:36;1.55;;;0.90;;
29916;SDS011;16786;49.466;11.068;2023-04-01T13:32:20;1.20;;;0.90;;
29916;SDS011;16786;49.466;11.068;2023-04-01T13:38:08;1.17;;;1.00;;
29916;SDS011;16786;49.466;11.068;2023-04-01T13:43:58;2.67;;;0.90;;
29916;SDS011;16786;49.466;11.068;2023-04-01T13:49:20;1.50;;;0.90;;
29916;SDS011;16786;49.466;11.068;2023-04-01T13:55:04;1.08;;;0.98;;
29916;SDS011;16786;49.466;11.068;2023-04-01T13:57:40;1.00;;;0.90;;
29916;SDS011;16786;49.466;11.068;2023-04-01T14:15:02;1.25;;;1.00;;
29916;SDS011;16786;49.466;11.068;2023-04-01T14:25:58;0.90;;;0.90;;
29916;SDS011;16786;49.466;11.068;2023-04-01T14:31:47;0.98;;;0.90;;
29916;SDS011;16786;49.466;11.068;2023-04-01T14:46:00;0.80;;;0.80;;
29916;SDS011;16786;49.466;11.068;2023-04-01T14:56:35;1.58;;;1.00;;
29916;SDS011;16786;49.466;11.068;2023-04-01T14:59:10;2.88;;;1.00;;
29916;SDS011;16786;49.466;11.068;2023-04-01T15:10:59;2.30;;;0.90;;
29916;SDS011;16786;49.466;11.068;2023-04-01T15:13:43;1.00;;;0.90;;
29916;SDS011;16786;49.466;11.068;2023-04-01T15:17:13;1.45;;;0.90;;
29916;SDS011;16786;49.466;11.068;2023-04-01T15:19:41;1.20;;;0.95;;
29916;SDS011;16786;49.466;11.068;2023-04-01T15:38:51;0.82;;;0.80;;
29916;SDS011;16786;49.466;11.068;2023-04-01T15:44:58;3.70;;;1.00;;
29916;SDS011;16786;49.466;11.068;2023-04-01T15:46:57;1.33;;;0.90;;
29916;SDS011;16786;49.466;11.068;2023-04-01T15:52:05;2.67;;;1.10;;
29916;SDS011;16786;49.466;11.068;2023-04-01T16:00:22;3.00;;;1.10;;
29916;SDS011;16786;49.466;11.068;2023-04-01T16:16:58;2.55;;;1.30;;
29916;SDS011;16786;49.466;11.068;2023-04-01T16:19:59;2.95;;;1.35;;
29916;SDS011;16786;49.466;11.068;2023-04-01T16:22:44;1.75;;;1.10;;
29916;SDS011;16786;49.466;11.068;2023-04-01T16:33:37;1.60;;;1.00;;
29916;SDS011;16786;49.466;11.068;2023-04-01T16:36:24;2.25;;;0.90;;
29916;SDS011;16786;49.466;11.068;2023-04-01T16:42:16;1.45;;;0.93;;
29916;SDS011;16786;49.466;11.068;2023-04-01T16:47:50;1.77;;;0.95;;
29916;SDS011;16786;49.466;11.068;2023-04-01T16:51:00;1.50;;;1.10;;
29916;SDS011;16786;49.466;11.068;2023-04-01T17:01:40;2.33;;;1.25;;
29916;SDS011;16786;49.466;11.068;2023-04-01T17:04:57;2.28;;;1.25;;
29916;SDS011;16786;49.466;11.068;2023-04-01T17:10:47;2.17;;;1.10;;
29916;SDS011;16786;49.466;11.068;2023-04-01T17:19:21;1.17;;;0.90;;
29916;SDS011;16786;49.466;11.068;2023-04-01T17:28:04;1.95;;;1.05;;
29916;SDS011;16786;49.466;11.068;2023-04-01T17:30:39;3.15;;;1.10;;
29916;SDS011;16786;49.466;11.068;2023-04-01T17:33:30;4.68;;;1.20;;
29916;SDS011;16786;49.466;11.068;2023-04-01T17:39:25;1.92;;;1.20;;
29916;SDS011;16786;49.466;11.068;2023-04-01T17:42:15;2.53;;;1.13;;
29916;SDS011;16786;49.466;11.068;2023-04-01T17:52:53;2.78;;;1.10;;
29916;SDS011;16786;49.466;11.068;2023-04-01T18:14:58;3.45;;;1.58;;
29916;SDS011;16786;49.466;11.068;2023-04-01T18:17:50;1.52;;;1.00;;
29916;SDS011;16786;49.466;11.068;2023-04-01T18:26:04;2.30;;;1.13;;
29916;SDS011;16786;49.466;11.068;2023-04-01T18:28:44;1.50;;;0.98;;
29916;SDS011;16786;49.466;11.068;2023-04-01T18:31:32;1.88;;;1.00;;
29916;SDS011;16786;49.466;11.068;2023-04-01T18:36:55;1.25;;;1.08;;
29916;SDS011;16786;49.466;11.068;2023-04-01T18:39:34;2.47;;;1.10;;
29916;SDS011;16786;49.466;11.068;2023-04-01T18:44:59;2.15;;;1.00;;
29916;SDS011;16786;49.466;11.068;2023-04-01T19:01:15;1.75;;;1.10;;
29916;SDS011;16786;49.466;11.068;2023-04-01T19:04:04;3.10;;;1.30;;
29916;SDS011;16786;49.466;11.068;2023-04-01T19:09:57;2.30;;;1.20;;
29916;SDS011;16786;49.466;11.068;2023-04-01T19:20:42;3.17;;;1.20;;
29916;SDS011;16786;49.466;11.068;2023-04-01T19:26:09;2.88;;;1.40;;
29916;SDS011;16786;49.466;11.068;2023-04-01T19:28:56;3.58;;;1.70;;
29916;SDS011;16786;49.466;11.068;2023-04-01T19:36:56;3.60;;;1.30;;
29916;SDS011;16786;49.466;11.068;2023-04-01T19:39:42;4.40;;;1.40;;
29916;SDS011;16786;49.466;11.068;2023-04-01T19:42:41;3.55;;;1.73;;
29916;SDS011;16786;49.466;11.068;2023-04-01T19:56:07;2.28;;;1.48;;
29916;SDS011;16786;49.466;11.068;2023-04-01T19:58:48;3.10;;;1.45;;
29916;SDS011;16786;49.466;11.068;2023-04-01T20:01:35;3.00;;;1.25;;
29916;SDS011;16786;49.466;11.068;2023-04-01T20:04:14;2.35;;;1.35;;
29916;SDS011;16786;49.466;11.068;2023-04-01T20:15:03;2.28;;;1.10;;
29916;SDS011;16786;49.466;11.068;2023-04-01T20:17:46;4.95;;;1.50;;
29916;SDS011;16786;49.466;11.068;2023-04-01T20:20:21;2.95;;;1.52;;
29916;SDS011;16786;49.466;11.068;2023-04-01T20:25:49;5.43;;;2.63;;
29916;SDS011;16786;49.466;11.068;2023-04-01T20:28:30;2.80;;;1.27;;
29916;SDS011;16786;49.466;11.068;2023-04-01T20:42:04;2.60;;;1.20;;
29916;SDS011;16786;49.466;11.068;2023-04-01T20:44:43;4.15;;;1.40;;
29916;SDS011;16786;49.466;11.068;2023-04-01T20:53:25;3.28;;;1.20;;
29916;SDS011;16786;49.466;11.068;2023-04-01T20:59:14;3.70;;;1.40;;
29916;SDS011;16786;49.466;11.068;2023-04-01T21:13:26;4.00;;;1.52;;
29916;SDS011;16786;49.466;11.068;2023-04-01T21:22:04;5.45;;;1.92;;
29916;SDS011;16786;49.466;11.068;2023-04-01T21:30:24;3.08;;;1.65;;
29916;SDS011;16786;49.466;11.068;2023-04-01T21:33:07;3.58;;;1.67;;
29916;SDS011;16786;49.466;11.068;2023-04-01T21:35:40;2.93;;;1.40;;
29916;SDS011;16786;49.466;11.068;2023-04-01T21:38:21;3.47;;;1.90;;
29916;SDS011;16786;49.466;11.068;2023-04-01T21:43:44;3.45;;;1.60;;
29916;SDS011;16786;49.466;11.068;2023-04-01T21:49:09;3.50;;;1.63;;
29916;SDS011;16786;49.466;11.068;2023-04-01T22:01:08;3.85;;;1.77;;
29916;SDS011;16786;49.466;11.068;2023-04-01T22:06:21;6.32;;;2.00;;
29916;SDS011;16786;49.466;11.068;2023-04-01T22:11:37;4.25;;;1.58;;
29916;SDS011;16786;49.466;11.068;2023-04-01T22:14:24;4.38;;;1.80;;
29916;SDS011;16786;49.466;11.068;2023-04-01T22:20:06;2.80;;;1.65;;
29916;SDS011;16786;49.466;11.068;2023-04-01T22:25:37;5.22;;;1.88;;
29916;SDS011;16786;49.466;11.068;2023-04-01T22:28:08;3.97;;;1.83;;
29916;SDS011;16786;49.466;11.068;2023-04-01T22:30:44;2.70;;;1.40;;
29916;SDS011;16786;49.466;11.068;2023-04-01T22:38:34;2.20;;;1.13;;
29916;SDS011;16786;49.466;11.068;2023-04-01T22:47:16;2.70;;;1.30;;
29916;SDS011;16786;49.466;11.068;2023-04-01T22:52:47;3.05;;;1.27;;
29916;SDS011;16786;49.466;11.068;2023-04-01T22:55:19;2.47;;;1.27;;
29916;SDS011;16786;49.466;11.068;2023-04-01T22:57:51;4.07;;;1.80;;
29916;SDS011;16786;49.466;11.068;2023-04-01T23:00:35;3.60;;;1.50;;
29916;SDS011;16786;49.466;11.068;2023-04-01T23:05:49;2.85;;;1.50;;
29916;SDS011;16786;49.466;11.068;2023-04-01T23:11:18;3.45;;;1.40;;
29916;SDS011;16786;49.466;11.068;2023-04-01T23:17:04;2.03;;;1.40;;
29916;SDS011;16786;49.466;11.068;2023-04-01T23:25:52;2.97;;;1.45;;
29916;SDS011;16786;49.466;11.068;2023-04-01T23:36:28;2.50;;;1.55;;
29916;SDS011;16786;49.466;11.068;2023-04-01T23:38:58;7.90;;;2.08;;
29916;SDS011;16786;49.466;11.068;2023-04-01T23:41:30;2.50;;;1.40;;
29916;SDS011;16786;49.466;11.068;2023-04-01T23:44:05;5.35;;;1.90;;
29916;SDS011;16786;49.466;11.068;2023-04-01T23:46:37;3.53;;;1.63;;
29916;SDS011;16786;49.466;11.068;2023-04-01T23:49:12;4.00;;;2.05;;
29916;SDS011;16786;49.466;11.068;2023-04-01T23:52:19;3.25;;;2.10;;
29916;SDS011;16786;49.466;11.068;2023-04-01T23:57:27;2.63;;;1.42;;
